Time;durP1;ratioP1;P1;durP2;ratioP2;P2;SDS_P1;SDS_P2;PMS_P1;PMS_P2;Temp;Humidity;BMP_temperature;BMP_pressure;BME280_temperature;BME280_humidity;BME280_pressure;Samples;Min_cycle;Max_cycle;Signal;HPM_P1;HPM_P2
2023/10/03 00:00:55;;;;;;;;;;;14.60;99.90;;;;;;7558771;19;20769;-79
2023/10/03 00:03:28;;;;;;;;;;;14.50;99.90;;;;;;7562158;19;19982;-79
2023/10/03 00:06:00;;;;;;;;;;;14.50;99.90;;;;;;7563985;19;19922;-80
2023/10/03 00:08:32;;;;;;;;;;;14.50;99.90;;;;;;7568743;19;19922;-78
2023/10/03 00:11:05;;;;;;;;;;;14.60;99.90;;;;;;7558834;19;20457;-80
2023/10/03 00:13:37;;;;;;;;;;;14.50;99.90;;;;;;7565748;19;19927;-79
2023/10/03 00:16:09;;;;;;;;;;;14.40;99.90;;;;;;7561312;19;19923;-80
2023/10/03 00:18:42;;;;;;;;;;;14.60;99.90;;;;;;7555736;19;19911;-80
2023/10/03 00:21:14;;;;;;;;;;;14.40;99.90;;;;;;7566826;19;19919;-79
2023/10/03 00:23:46;;;;;;;;;;;14.30;99.90;;;;;;7559526;19;20567;-78
2023/10/03 00:26:19;;;;;;;;;;;14.20;99.90;;;;;;7557495;19;19970;-79
2023/10/03 00:28:51;;;;;;;;;;;14.30;99.90;;;;;;7563163;19;19921;-78
2023/10/03 00:31:24;;;;;;;;;;;14.20;99.90;;;;;;7553282;19;19922;-78
2023/10/03 00:33:56;;;;;;;;;;;14.20;99.90;;;;;;7563580;19;19929;-79
2023/10/03 00:36:31;;;;;;;;;;;14.20;99.90;;;;;;7566430;19;20035;-77
2023/10/03 00:39:06;;;;;;;;;;;14.40;99.90;;;;;;7555302;19;19925;-80
2023/10/03 00:41:40;;;;;;;;;;;14.30;99.90;;;;;;7557846;19;19926;-79
2023/10/03 00:44:14;;;;;;;;;;;14.40;99.90;;;;;;7559462;19;19923;-79
2023/10/03 00:46:46;;;;;;;;;;;14.30;99.90;;;;;;7553582;19;20035;-79
2023/10/03 00:49:18;;;;;;;;;;;14.30;99.90;;;;;;7570011;19;19933;-79
2023/10/03 00:51:51;;;;;;;;;;;14.30;99.90;;;;;;7567136;19;19921;-80
2023/10/03 00:54:24;;;;;;;;;;;14.40;99.90;;;;;;7564142;19;21302;-78
2023/10/03 00:56:56;;;;;;;;;;;14.30;99.90;;;;;;7547171;19;19923;-79
2023/10/03 00:59:28;;;;;;;;;;;14.20;99.90;;;;;;7563872;19;19915;-78
2023/10/03 01:02:06;;;;;;;;;;;14.20;99.90;;;;;;7557862;19;19956;-78
2023/10/03 01:04:39;;;;;;;;;;;14.20;99.90;;;;;;7553088;19;19933;-79
2023/10/03 01:07:12;;;;;;;;;;;14.00;99.90;;;;;;7556756;19;19915;-80
2023/10/03 01:09:45;;;;;;;;;;;14.00;99.90;;;;;;7561654;19;19918;-79
2023/10/03 01:12:18;;;;;;;;;;;13.90;99.90;;;;;;7548335;19;19925;-79
2023/10/03 01:14:50;;;;;;;;;;;13.80;99.90;;;;;;7567202;19;19964;-78
2023/10/03 01:17:24;;;;;;;;;;;13.80;99.90;;;;;;7563267;19;19922;-78
2023/10/03 01:19:56;;;;;;;;;;;13.80;99.90;;;;;;7556950;19;21209;-78
2023/10/03 01:22:28;;;;;;;;;;;13.80;99.90;;;;;;7550977;19;20994;-77
2023/10/03 01:25:00;;;;;;;;;;;13.80;99.90;;;;;;7548899;19;19958;-80
2023/10/03 01:27:33;;;;;;;;;;;13.80;99.90;;;;;;7559089;19;19919;-79
2023/10/03 01:30:06;;;;;;;;;;;13.80;99.90;;;;;;7564049;19;19951;-78
2023/10/03 01:32:44;;;;;;;;;;;13.80;99.90;;;;;;7563248;19;21463;-78
2023/10/03 01:35:16;;;;;;;;;;;13.70;99.90;;;;;;7565329;19;20332;-79
2023/10/03 01:37:49;;;;;;;;;;;13.70;99.90;;;;;;7562095;19;19915;-77
2023/10/03 01:40:21;;;;;;;;;;;13.70;99.90;;;;;;7558973;19;19923;-77
2023/10/03 01:42:54;;;;;;;;;;;13.70;99.90;;;;;;7558017;19;19952;-78
2023/10/03 01:45:27;;;;;;;;;;;13.60;99.90;;;;;;7562589;19;19923;-78
2023/10/03 01:47:59;;;;;;;;;;;13.60;99.90;;;;;;7555372;19;20600;-79
2023/10/03 01:50:34;;;;;;;;;;;13.50;99.90;;;;;;7570748;19;19922;-79
2023/10/03 01:53:09;;;;;;;;;;;13.60;99.90;;;;;;7561862;19;20572;-78
2023/10/03 01:55:42;;;;;;;;;;;13.60;99.90;;;;;;7557812;19;20487;-78
2023/10/03 01:58:15;;;;;;;;;;;13.50;99.90;;;;;;7563013;19;19948;-78
2023/10/03 02:00:48;;;;;;;;;;;13.60;99.90;;;;;;7568425;19;19915;-77
2023/10/03 02:03:22;;;;;;;;;;;13.50;99.90;;;;;;7572076;19;19934;-78
2023/10/03 02:05:55;;;;;;;;;;;13.50;99.90;;;;;;7561882;19;19907;-77
2023/10/03 02:08:27;;;;;;;;;;;13.50;99.90;;;;;;7561546;19;19978;-78
2023/10/03 02:11:00;;;;;;;;;;;13.40;99.90;;;;;;7561802;19;19935;-78
2023/10/03 02:13:32;;;;;;;;;;;13.30;99.90;;;;;;7561959;19;19948;-79
2023/10/03 02:16:05;;;;;;;;;;;13.40;99.90;;;;;;7557380;19;20002;-78
2023/10/03 02:18:37;;;;;;;;;;;13.50;99.90;;;;;;7553121;19;21004;-79
2023/10/03 02:21:09;;;;;;;;;;;13.50;99.90;;;;;;7554261;19;19952;-78
2023/10/03 02:23:42;;;;;;;;;;;13.50;99.90;;;;;;7562519;19;19911;-78
2023/10/03 02:26:16;;;;;;;;;;;13.40;99.90;;;;;;7570697;19;19918;-80
2023/10/03 02:28:49;;;;;;;;;;;13.40;99.90;;;;;;7572706;19;19922;-78
2023/10/03 02:31:21;;;;;;;;;;;13.30;99.90;;;;;;7585833;19;19926;-77
2023/10/03 02:33:54;;;;;;;;;;;13.40;99.90;;;;;;7567497;19;20003;-78
2023/10/03 02:36:26;;;;;;;;;;;13.40;99.90;;;;;;7572109;19;19920;-78
2023/10/03 02:39:00;;;;;;;;;;;13.30;99.90;;;;;;7557602;19;20471;-77
2023/10/03 02:41:34;;;;;;;;;;;13.30;99.90;;;;;;7560408;19;19929;-78
2023/10/03 02:44:09;;;;;;;;;;;13.30;99.90;;;;;;7561340;19;19926;-78
2023/10/03 02:46:42;;;;;;;;;;;13.30;99.90;;;;;;7569129;19;19941;-77
2023/10/03 02:49:15;;;;;;;;;;;13.30;99.90;;;;;;7558710;19;19928;-78
2023/10/03 02:51:49;;;;;;;;;;;13.40;99.90;;;;;;7564831;19;19918;-78
2023/10/03 02:54:22;;;;;;;;;;;13.20;99.90;;;;;;7564353;19;20511;-76
2023/10/03 02:56:54;;;;;;;;;;;13.10;99.90;;;;;;7564147;19;19918;-78
2023/10/03 02:59:27;;;;;;;;;;;13.20;99.90;;;;;;7564568;19;19969;-79
2023/10/03 03:01:59;;;;;;;;;;;13.10;99.90;;;;;;7566004;19;19930;-77
2023/10/03 03:04:33;;;;;;;;;;;13.10;99.90;;;;;;7566639;19;20324;-78
2023/10/03 03:07:06;;;;;;;;;;;13.20;99.90;;;;;;7568664;19;20840;-78
2023/10/03 03:09:40;;;;;;;;;;;13.10;99.90;;;;;;7570209;19;19980;-79
2023/10/03 03:12:12;;;;;;;;;;;13.10;99.90;;;;;;7571042;19;20969;-78
2023/10/03 03:14:46;;;;;;;;;;;13.20;99.90;;;;;;7569912;19;19926;-77
2023/10/03 03:17:20;;;;;;;;;;;13.00;99.90;;;;;;7572163;19;19929;-78
2023/10/03 03:19:55;;;;;;;;;;;13.00;99.90;;;;;;7570271;19;19918;-79
2023/10/03 03:22:29;;;;;;;;;;;13.00;99.90;;;;;;7570965;19;20352;-78
2023/10/03 03:25:02;;;;;;;;;;;13.10;99.90;;;;;;7555914;19;19919;-79
2023/10/03 03:27:39;;;;;;;;;;;13.10;99.90;;;;;;7573396;19;20006;-79
2023/10/03 03:32:59;;;;;;;;;;;13.00;99.90;;;;;;7557868;19;20581;-79
2023/10/03 03:35:37;;;;;;;;;;;12.90;99.90;;;;;;7578597;19;19922;-79
2023/10/03 03:38:15;;;;;;;;;;;12.80;99.90;;;;;;7564568;19;19922;-79
2023/10/03 03:40:55;;;;;;;;;;;12.90;99.90;;;;;;7562972;19;19923;-79
2023/10/03 03:43:28;;;;;;;;;;;12.90;99.90;;;;;;7571792;19;19989;-80
2023/10/03 03:46:00;;;;;;;;;;;12.80;99.90;;;;;;7564615;19;19921;-78
2023/10/03 03:48:34;;;;;;;;;;;12.70;99.90;;;;;;7560665;19;19918;-80
2023/10/03 03:51:08;;;;;;;;;;;12.70;99.90;;;;;;7571247;19;19925;-79
2023/10/03 03:53:42;;;;;;;;;;;12.70;99.90;;;;;;7562944;19;19925;-78
2023/10/03 03:56:15;;;;;;;;;;;12.80;99.90;;;;;;7564022;19;20346;-80
2023/10/03 03:58:48;;;;;;;;;;;13.00;99.90;;;;;;7564296;19;20458;-78
2023/10/03 04:01:21;;;;;;;;;;;12.90;99.90;;;;;;7562533;19;19919;-79
2023/10/03 04:03:57;;;;;;;;;;;12.80;99.90;;;;;;7575146;19;19926;-78
2023/10/03 04:06:31;;;;;;;;;;;12.80;99.90;;;;;;7564001;19;19926;-77
2023/10/03 04:09:07;;;;;;;;;;;12.70;99.90;;;;;;7564239;19;19927;-79
2023/10/03 04:11:41;;;;;;;;;;;12.60;99.90;;;;;;7568709;19;19919;-77
2023/10/03 04:14:14;;;;;;;;;;;12.70;99.90;;;;;;7555426;19;20437;-77
2023/10/03 04:16:48;;;;;;;;;;;12.70;99.90;;;;;;7557331;19;19928;-78
2023/10/03 04:19:21;;;;;;;;;;;12.80;99.90;;;;;;7562719;19;21313;-78
2023/10/03 04:21:53;;;;;;;;;;;12.70;99.90;;;;;;7566167;19;19927;-78
2023/10/03 04:24:25;;;;;;;;;;;12.60;99.90;;;;;;7561771;19;19925;-78
2023/10/03 04:26:59;;;;;;;;;;;12.60;99.90;;;;;;7565302;19;21381;-78
2023/10/03 04:29:33;;;;;;;;;;;12.60;99.90;;;;;;7556483;19;19923;-78
2023/10/03 04:32:05;;;;;;;;;;;12.60;99.90;;;;;;7570245;19;19934;-78
2023/10/03 04:34:38;;;;;;;;;;;12.50;99.90;;;;;;7569620;19;20578;-79
2023/10/03 04:37:10;;;;;;;;;;;12.60;99.90;;;;;;7555062;19;19918;-78
2023/10/03 04:39:42;;;;;;;;;;;12.70;99.90;;;;;;7568560;19;19925;-78
2023/10/03 04:42:14;;;;;;;;;;;12.70;99.90;;;;;;7550022;19;19923;-78
2023/10/03 04:44:46;;;;;;;;;;;12.60;99.90;;;;;;7569503;19;19923;-79
2023/10/03 04:47:19;;;;;;;;;;;12.60;99.90;;;;;;7565886;19;19918;-79
2023/10/03 04:49:51;;;;;;;;;;;12.50;99.90;;;;;;7556222;19;19927;-79
2023/10/03 04:52:23;;;;;;;;;;;12.50;99.90;;;;;;7565537;19;19918;-79
2023/10/03 04:54:55;;;;;;;;;;;12.40;99.90;;;;;;7563617;19;19926;-78
2023/10/03 04:57:27;;;;;;;;;;;12.50;99.90;;;;;;7567062;19;19922;-79
2023/10/03 04:59:59;;;;;;;;;;;12.40;99.90;;;;;;7570053;19;19926;-78
2023/10/03 05:02:31;;;;;;;;;;;12.40;99.90;;;;;;7555453;19;20721;-78
2023/10/03 05:05:04;;;;;;;;;;;12.50;99.90;;;;;;7557049;19;20416;-77
2023/10/03 05:07:36;;;;;;;;;;;12.50;99.90;;;;;;7554740;19;20375;-80
2023/10/03 05:10:08;;;;;;;;;;;12.50;99.90;;;;;;7581283;19;19932;-79
2023/10/03 05:12:40;;;;;;;;;;;12.50;99.90;;;;;;7563145;19;19914;-78
2023/10/03 05:15:14;;;;;;;;;;;12.50;99.90;;;;;;7590369;19;19922;-79
2023/10/03 05:17:48;;;;;;;;;;;12.50;99.90;;;;;;7573125;19;19956;-78
2023/10/03 05:20:21;;;;;;;;;;;12.70;99.90;;;;;;7569742;19;19919;-77
2023/10/03 05:22:53;;;;;;;;;;;12.60;99.90;;;;;;7579759;19;20009;-77
2023/10/03 05:25:26;;;;;;;;;;;12.60;99.90;;;;;;7582986;19;19911;-78
2023/10/03 05:27:58;;;;;;;;;;;12.50;99.90;;;;;;7573864;19;19917;-78
2023/10/03 05:30:33;;;;;;;;;;;12.50;99.90;;;;;;7561143;19;20262;-79
2023/10/03 05:33:08;;;;;;;;;;;12.50;99.90;;;;;;7570315;19;19922;-77
2023/10/03 05:35:41;;;;;;;;;;;12.40;99.90;;;;;;7564836;19;20522;-78
2023/10/03 05:38:13;;;;;;;;;;;12.40;99.90;;;;;;7563470;19;19918;-78
2023/10/03 05:40:47;;;;;;;;;;;12.60;99.90;;;;;;7566784;19;19915;-78
2023/10/03 05:43:19;;;;;;;;;;;12.50;99.90;;;;;;7558154;19;20355;-80
2023/10/03 05:45:52;;;;;;;;;;;12.60;99.90;;;;;;7571857;19;19952;-81
2023/10/03 05:48:25;;;;;;;;;;;12.60;99.90;;;;;;7560101;19;19949;-79
2023/10/03 05:50:57;;;;;;;;;;;12.60;99.90;;;;;;7565503;19;19922;-79
2023/10/03 05:53:30;;;;;;;;;;;12.50;99.90;;;;;;7566779;19;19941;-78
2023/10/03 05:56:04;;;;;;;;;;;12.50;99.90;;;;;;7574397;19;19922;-80
2023/10/03 05:58:37;;;;;;;;;;;12.70;99.90;;;;;;7572988;19;19930;-80
2023/10/03 06:01:12;;;;;;;;;;;12.70;99.90;;;;;;7565871;19;19952;-79
2023/10/03 06:03:44;;;;;;;;;;;12.70;99.90;;;;;;7589415;19;19919;-76
2023/10/03 06:06:16;;;;;;;;;;;12.80;99.90;;;;;;7580320;19;19914;-78
2023/10/03 06:08:49;;;;;;;;;;;12.80;99.90;;;;;;7574101;19;19933;-78
2023/10/03 06:11:21;;;;;;;;;;;12.90;99.90;;;;;;7555857;19;19922;-78
2023/10/03 06:13:53;;;;;;;;;;;12.90;99.90;;;;;;7583488;19;20322;-75
2023/10/03 06:16:28;;;;;;;;;;;13.10;99.90;;;;;;7567781;19;19923;-76
2023/10/03 06:19:00;;;;;;;;;;;13.20;99.90;;;;;;7580968;19;19919;-75
2023/10/03 06:21:33;;;;;;;;;;;13.40;99.90;;;;;;7569640;19;19914;-74
2023/10/03 06:24:05;;;;;;;;;;;13.60;99.90;;;;;;7580053;19;21170;-76
2023/10/03 06:26:37;;;;;;;;;;;13.80;99.90;;;;;;7569957;19;19986;-75
2023/10/03 06:29:09;;;;;;;;;;;14.10;99.90;;;;;;7589888;19;19949;-75
2023/10/03 06:31:41;;;;;;;;;;;14.30;99.90;;;;;;7579307;19;21233;-75
2023/10/03 06:34:16;;;;;;;;;;;14.50;99.90;;;;;;7588937;19;19914;-77
2023/10/03 06:36:48;;;;;;;;;;;14.80;99.90;;;;;;7576947;19;19994;-75
2023/10/03 06:39:21;;;;;;;;;;;15.00;99.90;;;;;;7575963;19;20009;-76
2023/10/03 06:41:55;;;;;;;;;;;15.20;99.90;;;;;;7593521;19;19947;-75
2023/10/03 06:44:28;;;;;;;;;;;15.40;99.90;;;;;;7556807;19;19915;-76
2023/10/03 06:47:01;;;;;;;;;;;15.60;99.90;;;;;;7550293;19;19996;-76
2023/10/03 06:49:33;;;;;;;;;;;15.70;99.90;;;;;;7567017;19;20019;-76
2023/10/03 06:52:05;;;;;;;;;;;15.80;99.90;;;;;;7568428;19;19949;-77
2023/10/03 06:54:38;;;;;;;;;;;15.90;99.90;;;;;;7583955;19;19925;-78
2023/10/03 06:57:11;;;;;;;;;;;16.00;99.90;;;;;;7586139;19;19990;-75
2023/10/03 06:59:43;;;;;;;;;;;16.10;99.90;;;;;;7575562;19;20262;-75
2023/10/03 07:02:15;;;;;;;;;;;16.30;99.90;;;;;;7570926;19;19918;-74
2023/10/03 07:04:47;;;;;;;;;;;16.60;99.90;;;;;;7574165;19;19930;-75
2023/10/03 07:07:20;;;;;;;;;;;16.80;99.90;;;;;;7571349;19;19932;-75
2023/10/03 07:09:52;;;;;;;;;;;16.90;99.90;;;;;;7580196;19;20379;-76
2023/10/03 07:12:25;;;;;;;;;;;17.10;99.90;;;;;;7553665;19;19923;-75
2023/10/03 07:14:57;;;;;;;;;;;17.20;99.90;;;;;;7569588;19;25809;-76
2023/10/03 07:17:29;;;;;;;;;;;17.40;99.90;;;;;;7567034;19;19922;-76
2023/10/03 07:20:04;;;;;;;;;;;17.60;99.90;;;;;;7564753;19;20516;-76
2023/10/03 07:22:37;;;;;;;;;;;17.90;99.90;;;;;;7567244;19;19918;-74
2023/10/03 07:25:11;;;;;;;;;;;18.20;99.90;;;;;;7571721;19;19952;-78
2023/10/03 07:27:45;;;;;;;;;;;18.40;99.90;;;;;;7569826;19;19914;-78
2023/10/03 07:30:18;;;;;;;;;;;18.60;99.90;;;;;;7574896;19;21054;-77
2023/10/03 07:32:51;;;;;;;;;;;18.90;99.90;;;;;;7563753;19;19919;-78
2023/10/03 07:35:24;;;;;;;;;;;19.10;99.90;;;;;;7577850;19;19922;-76
2023/10/03 07:37:57;;;;;;;;;;;19.30;99.90;;;;;;7555526;19;19978;-75
2023/10/03 07:40:29;;;;;;;;;;;19.60;99.90;;;;;;7566402;19;19922;-75
2023/10/03 07:43:02;;;;;;;;;;;19.90;99.90;;;;;;7563922;19;19934;-76
2023/10/03 07:45:36;;;;;;;;;;;20.10;99.90;;;;;;7541000;19;20783;-78
2023/10/03 07:48:10;;;;;;;;;;;20.20;99.90;;;;;;7536292;19;19911;-76
2023/10/03 07:50:43;;;;;;;;;;;20.40;99.70;;;;;;7557882;19;19933;-76
2023/10/03 07:53:16;;;;;;;;;;;20.60;98.40;;;;;;7548014;19;20007;-75
2023/10/03 07:55:50;;;;;;;;;;;20.80;97.80;;;;;;7539205;19;19950;-77
2023/10/03 07:58:22;;;;;;;;;;;20.90;97.90;;;;;;7554379;19;20392;-78
2023/10/03 08:00:54;;;;;;;;;;;21.00;96.80;;;;;;7550704;19;19918;-76
2023/10/03 08:03:28;;;;;;;;;;;21.10;96.60;;;;;;7555962;19;19922;-77
2023/10/03 08:06:00;;;;;;;;;;;21.20;95.90;;;;;;7547785;19;19923;-77
2023/10/03 08:08:33;;;;;;;;;;;21.20;96.00;;;;;;7550227;19;19923;-78
2023/10/03 08:11:06;;;;;;;;;;;21.30;95.60;;;;;;7539430;19;19919;-76
2023/10/03 08:13:41;;;;;;;;;;;21.40;95.20;;;;;;7542685;19;19922;-75
2023/10/03 08:16:14;;;;;;;;;;;21.50;95.40;;;;;;7538956;19;19923;-77
2023/10/03 08:18:46;;;;;;;;;;;21.50;95.00;;;;;;7534652;19;21418;-77
2023/10/03 08:21:21;;;;;;;;;;;21.60;94.70;;;;;;7545217;19;20316;-76
2023/10/03 08:23:54;;;;;;;;;;;21.80;94.10;;;;;;7553595;19;19926;-76
2023/10/03 08:26:27;;;;;;;;;;;21.80;94.00;;;;;;7564450;19;20381;-77
2023/10/03 08:29:03;;;;;;;;;;;21.90;94.10;;;;;;7548661;19;19927;-77
2023/10/03 08:31:38;;;;;;;;;;;21.90;93.80;;;;;;7548663;19;19922;-76
2023/10/03 08:34:12;;;;;;;;;;;22.00;94.10;;;;;;7550387;19;19918;-76
2023/10/03 08:36:44;;;;;;;;;;;22.10;93.70;;;;;;7556843;19;19922;-77
2023/10/03 08:39:16;;;;;;;;;;;22.20;93.50;;;;;;7539172;19;19923;-75
2023/10/03 08:42:15;;;;;;;;;;;22.30;93.90;;;;;;7516410;19;19949;-76
2023/10/03 08:44:57;;;;;;;;;;;22.40;94.00;;;;;;7565328;19;19929;-76
2023/10/03 08:47:33;;;;;;;;;;;22.50;93.90;;;;;;7580087;19;19929;-76
2023/10/03 08:50:14;;;;;;;;;;;22.50;93.70;;;;;;7586984;19;19915;-77
2023/10/03 08:52:49;;;;;;;;;;;22.70;92.90;;;;;;7588628;19;20325;-76
2023/10/03 08:55:26;;;;;;;;;;;22.80;92.70;;;;;;7589327;19;19922;-76
2023/10/03 08:58:00;;;;;;;;;;;22.90;92.60;;;;;;7589412;19;19956;-77
2023/10/03 09:00:40;;;;;;;;;;;23.00;92.20;;;;;;7586599;19;19919;-77
2023/10/03 09:03:13;;;;;;;;;;;23.10;91.30;;;;;;7596235;19;19922;-77
2023/10/03 09:05:47;;;;;;;;;;;23.20;90.90;;;;;;7590418;19;20349;-77
2023/10/03 09:08:20;;;;;;;;;;;23.20;91.40;;;;;;7592248;19;19914;-77
2023/10/03 09:10:52;;;;;;;;;;;23.30;91.50;;;;;;7592593;19;19940;-76
2023/10/03 09:13:27;;;;;;;;;;;23.40;90.90;;;;;;7587272;19;21076;-76
2023/10/03 09:16:02;;;;;;;;;;;23.40;91.30;;;;;;7593762;19;19954;-75
2023/10/03 09:18:41;;;;;;;;;;;23.50;91.80;;;;;;7578634;19;19929;-76
2023/10/03 09:21:23;;;;;;;;;;;23.50;91.30;;;;;;7586577;19;19911;-76
2023/10/03 09:24:15;;;;;;;;;;;23.60;90.60;;;;;;7587551;19;19926;-77
2023/10/03 09:26:52;;;;;;;;;;;23.80;89.00;;;;;;7593672;19;20029;-77
2023/10/03 09:29:30;;;;;;;;;;;23.90;89.60;;;;;;7588152;19;19925;-76
2023/10/03 09:32:15;;;;;;;;;;;24.00;87.70;;;;;;7598445;19;19926;-76
2023/10/03 09:34:59;;;;;;;;;;;24.10;87.90;;;;;;7593486;19;19922;-77
2023/10/03 09:37:32;;;;;;;;;;;24.10;88.40;;;;;;7592634;19;19952;-76
2023/10/03 09:40:16;;;;;;;;;;;24.20;86.60;;;;;;7599282;19;19921;-78
2023/10/03 09:42:48;;;;;;;;;;;24.30;86.90;;;;;;7595240;19;20374;-77
2023/10/03 09:45:27;;;;;;;;;;;24.40;86.60;;;;;;7594588;19;19915;-77
2023/10/03 09:48:05;;;;;;;;;;;24.40;87.30;;;;;;7592931;19;19927;-76
2023/10/03 09:50:39;;;;;;;;;;;24.40;87.50;;;;;;7590571;19;19922;-78
2023/10/03 09:53:16;;;;;;;;;;;24.40;85.40;;;;;;7598474;19;19922;-74
2023/10/03 09:55:49;;;;;;;;;;;24.50;85.30;;;;;;7589049;19;20027;-77
2023/10/03 09:58:24;;;;;;;;;;;24.60;84.30;;;;;;7596291;19;21005;-79
2023/10/03 10:00:57;;;;;;;;;;;24.70;84.20;;;;;;7595174;19;19919;-77
2023/10/03 10:03:37;;;;;;;;;;;24.80;85.20;;;;;;7593621;19;19914;-78
2023/10/03 10:06:21;;;;;;;;;;;25.00;82.30;;;;;;7597021;19;20907;-78
2023/10/03 10:09:02;;;;;;;;;;;25.10;82.10;;;;;;7591240;19;19964;-77
2023/10/03 10:11:54;;;;;;;;;;;25.20;82.50;;;;;;7594159;19;20285;-76
2023/10/03 10:14:28;;;;;;;;;;;25.30;79.50;;;;;;7589398;19;19925;-77
2023/10/03 10:17:03;;;;;;;;;;;25.40;80.10;;;;;;7590973;19;19956;-76
2023/10/03 10:19:56;;;;;;;;;;;25.50;79.60;;;;;;7589201;19;20407;-75
2023/10/03 10:22:48;;;;;;;;;;;25.60;80.20;;;;;;7593155;19;20566;-77
2023/10/03 10:25:27;;;;;;;;;;;25.60;79.30;;;;;;7591020;19;19906;-75
2023/10/03 10:28:07;;;;;;;;;;;25.80;79.50;;;;;;7592915;19;19918;-76
2023/10/03 10:30:42;;;;;;;;;;;25.90;77.60;;;;;;7594782;19;19931;-77
2023/10/03 10:33:18;;;;;;;;;;;25.90;76.60;;;;;;7599494;19;20276;-76
2023/10/03 10:35:55;;;;;;;;;;;25.80;78.20;;;;;;7593630;19;19923;-77
2023/10/03 10:38:30;;;;;;;;;;;25.70;77.00;;;;;;7596316;19;20864;-77
2023/10/03 10:41:11;;;;;;;;;;;25.80;77.40;;;;;;7590130;19;20560;-77
2023/10/03 10:44:05;;;;;;;;;;;25.90;78.30;;;;;;7586580;19;20537;-76
2023/10/03 10:46:39;;;;;;;;;;;25.90;75.70;;;;;;7597373;19;20429;-75
2023/10/03 10:49:40;;;;;;;;;;;26.10;75.40;;;;;;7595069;19;19946;-75
2023/10/03 10:52:13;;;;;;;;;;;26.20;76.00;;;;;;7597689;19;20015;-76
2023/10/03 10:54:45;;;;;;;;;;;26.30;74.30;;;;;;7591788;19;19936;-75
2023/10/03 10:57:18;;;;;;;;;;;26.50;74.00;;;;;;7599017;19;20908;-77
2023/10/03 10:59:52;;;;;;;;;;;26.70;72.90;;;;;;7588904;19;20812;-76
2023/10/03 11:02:28;;;;;;;;;;;26.80;73.50;;;;;;7598415;19;20547;-77
2023/10/03 11:05:01;;;;;;;;;;;26.90;72.60;;;;;;7590040;19;19927;-78
2023/10/03 11:07:34;;;;;;;;;;;27.10;73.30;;;;;;7601351;19;19923;-77
2023/10/03 11:10:12;;;;;;;;;;;27.10;72.30;;;;;;7587352;19;20355;-77
2023/10/03 11:13:07;;;;;;;;;;;27.00;68.90;;;;;;7594507;19;20209;-76
2023/10/03 11:15:46;;;;;;;;;;;27.10;69.00;;;;;;7598680;19;20540;-77
2023/10/03 11:18:28;;;;;;;;;;;27.10;69.40;;;;;;7601357;19;20406;-77
2023/10/03 11:21:04;;;;;;;;;;;27.70;69.50;;;;;;7590479;19;21860;-77
2023/10/03 11:23:37;;;;;;;;;;;28.10;67.20;;;;;;7599104;19;19933;-77
2023/10/03 11:26:09;;;;;;;;;;;29.00;66.80;;;;;;7578217;19;19930;-76
2023/10/03 11:28:48;;;;;;;;;;;30.10;61.40;;;;;;7592726;19;19921;-77
2023/10/03 11:31:20;;;;;;;;;;;;;;;;;;7601346;19;19919;-75
2023/10/03 11:33:59;;;;;;;;;;;31.10;59.20;;;;;;7594631;19;19986;-77
2023/10/03 11:36:31;;;;;;;;;;;;;;;;;;7599226;19;19914;-77
2023/10/03 11:39:04;;;;;;;;;;;;;;;;;;7590286;19;19930;-77
2023/10/03 11:41:39;;;;;;;;;;;31.70;57.20;;;;;;7586703;19;20392;-77
2023/10/03 11:44:19;;;;;;;;;;;32.40;55.10;;;;;;7586093;19;20400;-76
2023/10/03 11:46:51;;;;;;;;;;;32.20;56.10;;;;;;7597399;19;19985;-76
2023/10/03 11:49:24;;;;;;;;;;;;;;;;;;7590519;19;19929;-76
2023/10/03 11:51:57;;;;;;;;;;;;;;;;;;7588446;19;19933;-76
2023/10/03 11:54:31;;;;;;;;;;;;;;;;;;7592716;19;20386;-77
2023/10/03 11:57:04;;;;;;;;;;;;;;;;;;7592342;19;21316;-78
2023/10/03 11:59:36;;;;;;;;;;;32.70;54.40;;;;;;7596212;19;19919;-78
2023/10/03 12:02:11;;;;;;;;;;;;;;;;;;7588672;19;19929;-77
2023/10/03 12:04:43;;;;;;;;;;;;;;;;;;7595662;19;19918;-78
2023/10/03 12:07:16;;;;;;;;;;;;;;;;;;7590400;19;20361;-77
2023/10/03 12:09:48;;;;;;;;;;;34.00;49.80;;;;;;7588289;19;19923;-76
2023/10/03 12:12:20;;;;;;;;;;;34.80;47.60;;;;;;7592418;19;19927;-78
2023/10/03 12:14:53;;;;;;;;;;;34.80;49.20;;;;;;7587996;19;20396;-77
2023/10/03 12:17:27;;;;;;;;;;;34.90;47.70;;;;;;7589971;19;19990;-77
2023/10/03 12:19:59;;;;;;;;;;;34.30;47.20;;;;;;7588206;19;19927;-78
2023/10/03 12:22:31;;;;;;;;;;;34.30;48.10;;;;;;7589750;19;19956;-78
2023/10/03 12:25:04;;;;;;;;;;;34.40;48.40;;;;;;7587762;19;19939;-77
2023/10/03 12:27:37;;;;;;;;;;;33.50;48.60;;;;;;7597584;19;20628;-77
2023/10/03 12:30:11;;;;;;;;;;;33.60;49.00;;;;;;7588763;19;19922;-77
2023/10/03 12:32:47;;;;;;;;;;;33.00;50.30;;;;;;7596651;19;20265;-78
2023/10/03 12:35:19;;;;;;;;;;;32.00;51.40;;;;;;7589732;19;21582;-77
2023/10/03 12:37:51;;;;;;;;;;;31.00;52.00;;;;;;7598135;19;19915;-77
2023/10/03 12:40:27;;;;;;;;;;;30.10;53.30;;;;;;7598123;19;20829;-77
2023/10/03 12:42:59;;;;;;;;;;;30.50;53.10;;;;;;7590723;19;21536;-78
2023/10/03 12:45:32;;;;;;;;;;;32.30;50.00;;;;;;7590352;19;19930;-77
2023/10/03 12:48:05;;;;;;;;;;;;;;;;;;7588507;19;19915;-76
2023/10/03 12:50:39;;;;;;;;;;;;;;;;;;7587168;19;19929;-77
2023/10/03 12:53:11;;;;;;;;;;;;;;;;;;7591985;19;20218;-77
2023/10/03 12:55:44;;;;;;;;;;;;;;;;;;7593720;19;19956;-78
2023/10/03 12:58:18;;;;;;;;;;;;;;;;;;7585451;19;19932;-77
2023/10/03 13:00:51;;;;;;;;;;;;;;;;;;7597209;19;20370;-77
2023/10/03 13:03:23;;;;;;;;;;;33.60;49.10;;;;;;7595229;19;20708;-77
2023/10/03 13:05:56;;;;;;;;;;;;;;;;;;7594840;19;19919;-77
2023/10/03 13:08:29;;;;;;;;;;;;;;;;;;7599345;19;19918;-78
2023/10/03 13:11:05;;;;;;;;;;;;;;;;;;7594537;19;19930;-77
2023/10/03 13:13:40;;;;;;;;;;;;;;;;;;7590092;19;19915;-78
2023/10/03 13:16:14;;;;;;;;;;;;;;;;;;7589509;19;19970;-77
2023/10/03 13:18:47;;;;;;;;;;;;;;;;;;7590678;19;20587;-78
2023/10/03 13:21:22;;;;;;;;;;;;;;;;;;7589278;19;20269;-77
2023/10/03 13:23:54;;;;;;;;;;;36.70;42.80;;;;;;7595073;19;20627;-77
2023/10/03 13:26:28;;;;;;;;;;;;;;;;;;7586516;19;19923;-78
2023/10/03 13:29:01;;;;;;;;;;;;;;;;;;7590665;19;19926;-77
2023/10/03 13:31:36;;;;;;;;;;;36.90;43.20;;;;;;7594200;19;19911;-77
2023/10/03 13:34:08;;;;;;;;;;;;;;;;;;7592893;19;19911;-76
2023/10/03 13:36:41;;;;;;;;;;;;;;;;;;7596532;19;19919;-77
2023/10/03 13:39:13;;;;;;;;;;;;;;;;;;7601655;19;19919;-77
2023/10/03 13:41:47;;;;;;;;;;;;;;;;;;7593865;19;21042;-77
2023/10/03 13:44:19;;;;;;;;;;;37.80;41.60;;;;;;7585986;19;19911;-77
2023/10/03 13:46:51;;;;;;;;;;;38.20;41.80;;;;;;7594438;19;20254;-77
2023/10/03 13:49:24;;;;;;;;;;;;;;;;;;7590667;19;19951;-78
2023/10/03 13:51:56;;;;;;;;;;;38.50;41.70;;;;;;7592984;19;20643;-77
2023/10/03 13:54:33;;;;;;;;;;;;;;;;;;7588898;19;20483;-76
2023/10/03 13:57:06;;;;;;;;;;;;;;;;;;7594778;19;20520;-78
2023/10/03 13:59:39;;;;;;;;;;;;;;;;;;7593934;19;20559;-79
2023/10/03 14:02:12;;;;;;;;;;;;;;;;;;7587570;19;19941;-77
2023/10/03 14:04:45;;;;;;;;;;;;;;;;;;7591827;19;19926;-78
2023/10/03 14:07:20;;;;;;;;;;;;;;;;;;7586777;19;19918;-78
2023/10/03 14:09:53;;;;;;;;;;;38.60;41.40;;;;;;7592429;19;20761;-78
2023/10/03 14:12:26;;;;;;;;;;;39.70;40.50;;;;;;7592367;19;19946;-77
2023/10/03 14:14:58;;;;;;;;;;;37.60;41.50;;;;;;7592544;19;20604;-78
2023/10/03 14:17:31;;;;;;;;;;;38.10;43.00;;;;;;7595779;19;19922;-77
2023/10/03 14:20:05;;;;;;;;;;;37.90;41.60;;;;;;7594011;19;19919;-78
2023/10/03 14:22:41;;;;;;;;;;;37.30;43.10;;;;;;7595824;19;19982;-77
2023/10/03 14:25:13;;;;;;;;;;;37.10;43.10;;;;;;7589678;19;20210;-77
2023/10/03 14:27:46;;;;;;;;;;;37.60;43.20;;;;;;7596697;19;19922;-77
2023/10/03 14:30:18;;;;;;;;;;;37.50;42.90;;;;;;7594456;19;19926;-77
2023/10/03 14:32:50;;;;;;;;;;;37.30;43.70;;;;;;7600957;19;19923;-77
2023/10/03 14:35:22;;;;;;;;;;;36.10;44.80;;;;;;7592980;19;19958;-77
2023/10/03 14:37:56;;;;;;;;;;;34.30;45.80;;;;;;7598833;19;21042;-78
2023/10/03 14:40:28;;;;;;;;;;;32.90;47.50;;;;;;7586317;19;19937;-78
2023/10/03 14:43:02;;;;;;;;;;;32.20;50.50;;;;;;7596482;19;20357;-78
2023/10/03 14:45:34;;;;;;;;;;;31.90;50.10;;;;;;7596117;19;19911;-78
2023/10/03 14:48:06;;;;;;;;;;;30.80;50.70;;;;;;7596175;19;20445;-79
2023/10/03 14:50:42;;;;;;;;;;;30.30;52.50;;;;;;7602293;19;19929;-77
2023/10/03 14:53:15;;;;;;;;;;;29.50;53.60;;;;;;7596075;19;19934;-78
2023/10/03 14:55:47;;;;;;;;;;;29.10;55.20;;;;;;7596865;19;19927;-79
2023/10/03 14:58:21;;;;;;;;;;;28.80;56.00;;;;;;7597987;19;19941;-79
2023/10/03 15:01:00;;;;;;;;;;;28.50;55.80;;;;;;7594698;19;19915;-76
2023/10/03 15:03:32;;;;;;;;;;;28.40;56.80;;;;;;7599198;19;19918;-77
2023/10/03 15:06:05;;;;;;;;;;;28.10;57.00;;;;;;7588210;19;19998;-78
2023/10/03 15:08:37;;;;;;;;;;;27.80;57.00;;;;;;7590741;19;19944;-78
2023/10/03 15:11:10;;;;;;;;;;;27.60;57.80;;;;;;7597759;19;20785;-78
2023/10/03 15:13:42;;;;;;;;;;;27.50;58.20;;;;;;7600231;19;19925;-78